sensor_id;sensor_type;location;lat;lon;timestamp;temperature;humidity
15872;DHT22;8035;51.962;7.162;2023-04-07T00:02:24;6.70;99.90
15872;DHT22;8035;51.962;7.162;2023-04-07T00:04:51;6.70;99.90
15872;DHT22;8035;51.962;7.162;2023-04-07T00:07:17;6.70;99.90
15872;DHT22;8035;51.962;7.162;2023-04-07T00:09:42;6.70;99.90
15872;DHT22;8035;51.962;7.162;2023-04-07T00:12:09;6.70;99.90
15872;DHT22;8035;51.962;7.162;2023-04-07T00:14:34;6.70;99.90
15872;DHT22;8035;51.962;7.162;2023-04-07T00:17:00;6.70;99.90
15872;DHT22;8035;51.962;7.162;2023-04-07T00:19:25;6.70;99.90
15872;DHT22;8035;51.962;7.162;2023-04-07T00:21:51;6.70;99.90
15872;DHT22;8035;51.962;7.162;2023-04-07T00:24:18;6.70;99.90
15872;DHT22;8035;51.962;7.162;2023-04-07T00:26:44;6.70;99.90
15872;DHT22;8035;51.962;7.162;2023-04-07T00:29:09;6.70;99.90
15872;DHT22;8035;51.962;7.162;2023-04-07T00:31:35;6.70;99.90
15872;DHT22;8035;51.962;7.162;2023-04-07T00:34:01;6.70;99.90
15872;DHT22;8035;51.962;7.162;2023-04-07T00:36:26;6.70;99.90
15872;DHT22;8035;51.962;7.162;2023-04-07T00:38:53;6.70;99.90
15872;DHT22;8035;51.962;7.162;2023-04-07T00:41:18;6.70;99.90
15872;DHT22;8035;51.962;7.162;2023-04-07T00:43:44;6.70;99.90
15872;DHT22;8035;51.962;7.162;2023-04-07T00:46:10;6.70;99.90
15872;DHT22;8035;51.962;7.162;2023-04-07T00:48:36;6.70;99.90
15872;DHT22;8035;51.962;7.162;2023-04-07T00:51:02;6.70;99.90
15872;DHT22;8035;51.962;7.162;2023-04-07T00:53:28;6.70;99.90
15872;DHT22;8035;51.962;7.162;2023-04-07T00:55:54;6.70;99.90
15872;DHT22;8035;51.962;7.162;2023-04-07T00:58:19;6.70;99.90
15872;DHT22;8035;51.962;7.162;2023-04-07T01:00:58;6.70;99.90
15872;DHT22;8035;51.962;7.162;2023-04-07T01:03:33;6.80;99.90
15872;DHT22;8035;51.962;7.162;2023-04-07T01:06:04;6.80;99.90
15872;DHT22;8035;51.962;7.162;2023-04-07T01:13:46;6.80;99.90
15872;DHT22;8035;51.962;7.162;2023-04-07T01:16:18;6.80;99.90
15872;DHT22;8035;51.962;7.162;2023-04-07T01:18:50;6.70;99.90
15872;DHT22;8035;51.962;7.162;2023-04-07T01:21:17;6.80;99.90
15872;DHT22;8035;51.962;7.162;2023-04-07T01:26:26;6.80;99.90
15872;DHT22;8035;51.962;7.162;2023-04-07T01:31:49;6.80;99.90
15872;DHT22;8035;51.962;7.162;2023-04-07T01:34:16;6.80;99.90
15872;DHT22;8035;51.962;7.162;2023-04-07T01:36:43;6.80;99.90
15872;DHT22;8035;51.962;7.162;2023-04-07T01:39:10;6.90;99.90
15872;DHT22;8035;51.962;7.162;2023-04-07T01:41:37;6.90;99.90
15872;DHT22;8035;51.962;7.162;2023-04-07T01:44:05;6.90;99.90
15872;DHT22;8035;51.962;7.162;2023-04-07T01:46:31;6.90;99.90
15872;DHT22;8035;51.962;7.162;2023-04-07T01:48:57;6.90;99.90
15872;DHT22;8035;51.962;7.162;2023-04-07T01:51:24;6.90;99.90
15872;DHT22;8035;51.962;7.162;2023-04-07T01:53:51;6.90;99.90
15872;DHT22;8035;51.962;7.162;2023-04-07T01:56:17;6.90;99.90
15872;DHT22;8035;51.962;7.162;2023-04-07T01:58:43;6.90;99.90
15872;DHT22;8035;51.962;7.162;2023-04-07T02:01:08;6.90;99.90
15872;DHT22;8035;51.962;7.162;2023-04-07T02:03:55;6.90;99.90
15872;DHT22;8035;51.962;7.162;2023-04-07T02:06:36;6.90;99.90
15872;DHT22;8035;51.962;7.162;2023-04-07T02:09:06;6.90;99.90
15872;DHT22;8035;51.962;7.162;2023-04-07T02:11:33;7.00;99.90
15872;DHT22;8035;51.962;7.162;2023-04-07T02:14:01;6.90;99.90
15872;DHT22;8035;51.962;7.162;2023-04-07T02:16:30;6.90;99.90
15872;DHT22;8035;51.962;7.162;2023-04-07T02:18:56;6.90;99.90
15872;DHT22;8035;51.962;7.162;2023-04-07T02:21:23;6.90;99.90
15872;DHT22;8035;51.962;7.162;2023-04-07T02:23:50;7.00;99.90
15872;DHT22;8035;51.962;7.162;2023-04-07T02:26:16;7.00;99.90
15872;DHT22;8035;51.962;7.162;2023-04-07T02:28:41;7.00;99.90
15872;DHT22;8035;51.962;7.162;2023-04-07T02:31:07;7.00;99.90
15872;DHT22;8035;51.962;7.162;2023-04-07T02:33:33;7.00;99.90
15872;DHT22;8035;51.962;7.162;2023-04-07T02:35:58;7.00;99.90
15872;DHT22;8035;51.962;7.162;2023-04-07T02:38:24;7.00;99.90
15872;DHT22;8035;51.962;7.162;2023-04-07T02:40:50;7.00;99.90
15872;DHT22;8035;51.962;7.162;2023-04-07T02:43:16;7.00;99.90
15872;DHT22;8035;51.962;7.162;2023-04-07T02:45:43;7.00;99.90
15872;DHT22;8035;51.962;7.162;2023-04-07T02:48:09;7.00;99.90
15872;DHT22;8035;51.962;7.162;2023-04-07T02:50:34;7.00;99.90
15872;DHT22;8035;51.962;7.162;2023-04-07T02:53:00;7.00;99.90
15872;DHT22;8035;51.962;7.162;2023-04-07T02:55:26;7.00;99.90
15872;DHT22;8035;51.962;7.162;2023-04-07T02:57:51;7.00;99.90
15872;DHT22;8035;51.962;7.162;2023-04-07T03:00:17;7.00;99.90
15872;DHT22;8035;51.962;7.162;2023-04-07T03:02:43;7.00;99.90
15872;DHT22;8035;51.962;7.162;2023-04-07T03:05:08;7.00;99.90
15872;DHT22;8035;51.962;7.162;2023-04-07T03:07:34;7.00;99.90
15872;DHT22;8035;51.962;7.162;2023-04-07T03:10:00;7.00;99.90
15872;DHT22;8035;51.962;7.162;2023-04-07T03:12:26;7.00;99.90
15872;DHT22;8035;51.962;7.162;2023-04-07T03:14:51;7.00;99.90
15872;DHT22;8035;51.962;7.162;2023-04-07T03:17:17;7.00;99.90
15872;DHT22;8035;51.962;7.162;2023-04-07T03:19:43;7.00;99.90
15872;DHT22;8035;51.962;7.162;2023-04-07T03:22:08;7.00;99.90
15872;DHT22;8035;51.962;7.162;2023-04-07T03:24:34;7.00;99.90
15872;DHT22;8035;51.962;7.162;2023-04-07T03:26:59;7.00;99.90
15872;DHT22;8035;51.962;7.162;2023-04-07T03:29:26;7.00;99.90
15872;DHT22;8035;51.962;7.162;2023-04-07T03:31:52;7.00;99.90
15872;DHT22;8035;51.962;7.162;2023-04-07T03:34:17;7.00;99.90
15872;DHT22;8035;51.962;7.162;2023-04-07T03:36:43;7.00;99.90
15872;DHT22;8035;51.962;7.162;2023-04-07T03:39:09;7.00;99.90
15872;DHT22;8035;51.962;7.162;2023-04-07T03:41:34;7.00;99.90
15872;DHT22;8035;51.962;7.162;2023-04-07T03:44:00;7.00;99.90
15872;DHT22;8035;51.962;7.162;2023-04-07T03:46:26;7.00;99.90
15872;DHT22;8035;51.962;7.162;2023-04-07T03:48:51;7.00;99.90
15872;DHT22;8035;51.962;7.162;2023-04-07T03:51:17;7.00;99.90
15872;DHT22;8035;51.962;7.162;2023-04-07T03:53:43;7.00;99.90
15872;DHT22;8035;51.962;7.162;2023-04-07T03:56:08;7.00;99.90
15872;DHT22;8035;51.962;7.162;2023-04-07T03:58:34;7.00;99.90
15872;DHT22;8035;51.962;7.162;2023-04-07T04:01:00;7.00;99.90
15872;DHT22;8035;51.962;7.162;2023-04-07T04:03:26;7.00;99.90
15872;DHT22;8035;51.962;7.162;2023-04-07T04:05:51;7.00;99.90
15872;DHT22;8035;51.962;7.162;2023-04-07T04:08:17;7.00;99.90
15872;DHT22;8035;51.962;7.162;2023-04-07T04:10:43;7.10;99.90
15872;DHT22;8035;51.962;7.162;2023-04-07T04:13:08;7.10;99.90
15872;DHT22;8035;51.962;7.162;2023-04-07T04:15:34;7.10;99.90
15872;DHT22;8035;51.962;7.162;2023-04-07T04:18:00;7.10;99.90
15872;DHT22;8035;51.962;7.162;2023-04-07T04:20:25;7.10;99.90
15872;DHT22;8035;51.962;7.162;2023-04-07T04:22:51;7.00;99.90
15872;DHT22;8035;51.962;7.162;2023-04-07T04:25:17;7.00;99.90
15872;DHT22;8035;51.962;7.162;2023-04-07T04:27:42;7.00;99.90
15872;DHT22;8035;51.962;7.162;2023-04-07T04:30:08;7.00;99.90
15872;DHT22;8035;51.962;7.162;2023-04-07T04:32:34;7.00;99.90
15872;DHT22;8035;51.962;7.162;2023-04-07T04:35:00;7.00;99.90
15872;DHT22;8035;51.962;7.162;2023-04-07T04:37:26;7.00;99.90
15872;DHT22;8035;51.962;7.162;2023-04-07T04:39:52;7.00;99.90
15872;DHT22;8035;51.962;7.162;2023-04-07T04:42:17;7.00;99.90
15872;DHT22;8035;51.962;7.162;2023-04-07T04:44:43;7.00;99.90
15872;DHT22;8035;51.962;7.162;2023-04-07T04:47:09;7.00;99.90
15872;DHT22;8035;51.962;7.162;2023-04-07T04:49:34;7.10;99.90
15872;DHT22;8035;51.962;7.162;2023-04-07T04:52:00;7.10;99.90
15872;DHT22;8035;51.962;7.162;2023-04-07T04:54:26;7.10;99.90
15872;DHT22;8035;51.962;7.162;2023-04-07T04:56:51;7.10;99.90
15872;DHT22;8035;51.962;7.162;2023-04-07T04:59:17;7.10;99.90
15872;DHT22;8035;51.962;7.162;2023-04-07T05:01:43;7.10;99.90
15872;DHT22;8035;51.962;7.162;2023-04-07T05:04:08;7.10;99.90
15872;DHT22;8035;51.962;7.162;2023-04-07T05:06:34;7.10;99.90
15872;DHT22;8035;51.962;7.162;2023-04-07T05:09:00;7.10;99.90
15872;DHT22;8035;51.962;7.162;2023-04-07T05:11:26;7.10;99.90
15872;DHT22;8035;51.962;7.162;2023-04-07T05:13:51;7.10;99.90
15872;DHT22;8035;51.962;7.162;2023-04-07T05:16:17;7.10;99.90
15872;DHT22;8035;51.962;7.162;2023-04-07T05:18:43;7.10;99.90
15872;DHT22;8035;51.962;7.162;2023-04-07T05:21:08;7.10;99.90
15872;DHT22;8035;51.962;7.162;2023-04-07T05:23:34;7.10;99.90
15872;DHT22;8035;51.962;7.162;2023-04-07T05:26:00;7.10;99.90
15872;DHT22;8035;51.962;7.162;2023-04-07T05:28:26;7.10;99.90
15872;DHT22;8035;51.962;7.162;2023-04-07T05:30:52;7.10;99.90
15872;DHT22;8035;51.962;7.162;2023-04-07T05:33:18;7.10;99.90
15872;DHT22;8035;51.962;7.162;2023-04-07T05:35:44;7.10;99.90
15872;DHT22;8035;51.962;7.162;2023-04-07T05:38:10;7.20;99.90
15872;DHT22;8035;51.962;7.162;2023-04-07T05:40:36;7.20;99.90
15872;DHT22;8035;51.962;7.162;2023-04-07T05:43:02;7.20;99.90
15872;DHT22;8035;51.962;7.162;2023-04-07T05:45:28;7.20;99.90
15872;DHT22;8035;51.962;7.162;2023-04-07T05:47:53;7.20;99.90
15872;DHT22;8035;51.962;7.162;2023-04-07T05:50:19;7.20;99.90
15872;DHT22;8035;51.962;7.162;2023-04-07T05:52:44;7.20;99.90
15872;DHT22;8035;51.962;7.162;2023-04-07T05:55:10;7.30;99.90
15872;DHT22;8035;51.962;7.162;2023-04-07T05:57:36;7.30;99.90
15872;DHT22;8035;51.962;7.162;2023-04-07T06:00:02;7.30;99.90
15872;DHT22;8035;51.962;7.162;2023-04-07T06:02:29;7.30;99.90
15872;DHT22;8035;51.962;7.162;2023-04-07T06:04:54;7.20;99.90
15872;DHT22;8035;51.962;7.162;2023-04-07T06:07:20;7.20;99.90
15872;DHT22;8035;51.962;7.162;2023-04-07T06:09:46;7.30;99.90
15872;DHT22;8035;51.962;7.162;2023-04-07T06:12:12;7.30;99.90
15872;DHT22;8035;51.962;7.162;2023-04-07T06:14:39;7.30;99.90
15872;DHT22;8035;51.962;7.162;2023-04-07T06:17:05;7.30;99.90
15872;DHT22;8035;51.962;7.162;2023-04-07T06:19:31;7.30;99.90
15872;DHT22;8035;51.962;7.162;2023-04-07T06:21:57;7.30;99.90
15872;DHT22;8035;51.962;7.162;2023-04-07T06:24:22;7.30;99.90
15872;DHT22;8035;51.962;7.162;2023-04-07T06:26:53;7.30;99.90
15872;DHT22;8035;51.962;7.162;2023-04-07T06:29:19;7.40;99.90
15872;DHT22;8035;51.962;7.162;2023-04-07T06:31:45;7.40;99.90
15872;DHT22;8035;51.962;7.162;2023-04-07T06:34:10;7.40;99.90
15872;DHT22;8035;51.962;7.162;2023-04-07T06:36:36;7.40;99.90
15872;DHT22;8035;51.962;7.162;2023-04-07T06:39:02;7.50;99.90
15872;DHT22;8035;51.962;7.162;2023-04-07T06:41:28;7.50;99.90
15872;DHT22;8035;51.962;7.162;2023-04-07T06:43:54;7.60;99.90
15872;DHT22;8035;51.962;7.162;2023-04-07T06:46:19;7.60;99.90
15872;DHT22;8035;51.962;7.162;2023-04-07T06:48:45;7.60;99.90
15872;DHT22;8035;51.962;7.162;2023-04-07T06:51:11;7.60;99.90
15872;DHT22;8035;51.962;7.162;2023-04-07T06:53:37;7.60;99.90
15872;DHT22;8035;51.962;7.162;2023-04-07T06:56:08;7.60;99.90
15872;DHT22;8035;51.962;7.162;2023-04-07T06:58:34;7.60;99.90
15872;DHT22;8035;51.962;7.162;2023-04-07T07:01:00;7.60;99.90
15872;DHT22;8035;51.962;7.162;2023-04-07T07:03:26;7.70;99.90
15872;DHT22;8035;51.962;7.162;2023-04-07T07:05:54;7.70;99.90
15872;DHT22;8035;51.962;7.162;2023-04-07T07:08:21;7.70;99.90
15872;DHT22;8035;51.962;7.162;2023-04-07T07:10:47;7.80;99.90
15872;DHT22;8035;51.962;7.162;2023-04-07T07:13:13;7.80;99.90
15872;DHT22;8035;51.962;7.162;2023-04-07T07:15:38;7.80;99.90
15872;DHT22;8035;51.962;7.162;2023-04-07T07:18:04;7.90;99.90
15872;DHT22;8035;51.962;7.162;2023-04-07T07:20:30;7.90;99.90
15872;DHT22;8035;51.962;7.162;2023-04-07T07:22:55;7.90;99.90
15872;DHT22;8035;51.962;7.162;2023-04-07T07:25:23;7.90;99.90
15872;DHT22;8035;51.962;7.162;2023-04-07T07:27:51;7.90;99.90
15872;DHT22;8035;51.962;7.162;2023-04-07T07:30:19;7.90;99.90
15872;DHT22;8035;51.962;7.162;2023-04-07T07:32:45;7.90;99.90
15872;DHT22;8035;51.962;7.162;2023-04-07T07:35:10;8.00;99.90
15872;DHT22;8035;51.962;7.162;2023-04-07T07:37:36;7.90;99.90
15872;DHT22;8035;51.962;7.162;2023-04-07T07:40:02;8.00;99.90
15872;DHT22;8035;51.962;7.162;2023-04-07T07:42:29;8.00;99.90
15872;DHT22;8035;51.962;7.162;2023-04-07T07:44:56;8.00;99.90
15872;DHT22;8035;51.962;7.162;2023-04-07T07:47:21;8.00;99.90
15872;DHT22;8035;51.962;7.162;2023-04-07T07:49:47;8.10;99.90
15872;DHT22;8035;51.962;7.162;2023-04-07T07:52:13;8.10;99.90
15872;DHT22;8035;51.962;7.162;2023-04-07T07:54:39;8.10;99.90
15872;DHT22;8035;51.962;7.162;2023-04-07T07:57:05;8.20;99.90
15872;DHT22;8035;51.962;7.162;2023-04-07T07:59:31;8.30;99.90
15872;DHT22;8035;51.962;7.162;2023-04-07T08:02:15;8.30;99.90
15872;DHT22;8035;51.962;7.162;2023-04-07T08:04:41;8.30;99.90
15872;DHT22;8035;51.962;7.162;2023-04-07T08:07:07;8.40;99.90
15872;DHT22;8035;51.962;7.162;2023-04-07T08:09:32;8.30;99.90
15872;DHT22;8035;51.962;7.162;2023-04-07T08:11:58;8.40;99.90
15872;DHT22;8035;51.962;7.162;2023-04-07T08:14:24;8.40;99.90
15872;DHT22;8035;51.962;7.162;2023-04-07T08:16:49;8.40;99.90
15872;DHT22;8035;51.962;7.162;2023-04-07T08:19:15;8.50;99.90
15872;DHT22;8035;51.962;7.162;2023-04-07T08:21:41;8.50;99.90
15872;DHT22;8035;51.962;7.162;2023-04-07T08:24:08;8.50;99.90
15872;DHT22;8035;51.962;7.162;2023-04-07T08:26:34;8.60;99.90
15872;DHT22;8035;51.962;7.162;2023-04-07T08:29:00;8.60;99.90
15872;DHT22;8035;51.962;7.162;2023-04-07T08:31:25;8.60;99.90
15872;DHT22;8035;51.962;7.162;2023-04-07T08:33:51;8.60;99.90
15872;DHT22;8035;51.962;7.162;2023-04-07T08:36:22;8.60;99.90
15872;DHT22;8035;51.962;7.162;2023-04-07T08:38:47;8.70;99.90
15872;DHT22;8035;51.962;7.162;2023-04-07T08:41:17;8.80;99.90
15872;DHT22;8035;51.962;7.162;2023-04-07T08:43:46;8.80;99.90
15872;DHT22;8035;51.962;7.162;2023-04-07T08:46:13;8.80;99.90
15872;DHT22;8035;51.962;7.162;2023-04-07T08:48:42;8.80;99.90
15872;DHT22;8035;51.962;7.162;2023-04-07T08:51:08;8.80;99.90
15872;DHT22;8035;51.962;7.162;2023-04-07T08:53:46;8.80;99.90
15872;DHT22;8035;51.962;7.162;2023-04-07T08:56:15;8.70;99.90
15872;DHT22;8035;51.962;7.162;2023-04-07T08:58:42;8.70;99.90
15872;DHT22;8035;51.962;7.162;2023-04-07T09:01:08;8.60;99.90
15872;DHT22;8035;51.962;7.162;2023-04-07T09:03:34;8.60;99.90
15872;DHT22;8035;51.962;7.162;2023-04-07T09:06:00;8.60;99.90
15872;DHT22;8035;51.962;7.162;2023-04-07T09:08:26;8.60;99.90
15872;DHT22;8035;51.962;7.162;2023-04-07T09:10:53;8.60;99.90
15872;DHT22;8035;51.962;7.162;2023-04-07T09:13:19;8.60;99.90
15872;DHT22;8035;51.962;7.162;2023-04-07T09:15:45;8.60;99.90
15872;DHT22;8035;51.962;7.162;2023-04-07T09:18:11;8.60;99.90
15872;DHT22;8035;51.962;7.162;2023-04-07T09:23:42;8.60;99.90
15872;DHT22;8035;51.962;7.162;2023-04-07T09:28:43;8.60;99.90
15872;DHT22;8035;51.962;7.162;2023-04-07T09:31:09;8.70;99.90
15872;DHT22;8035;51.962;7.162;2023-04-07T09:33:35;8.70;99.90
15872;DHT22;8035;51.962;7.162;2023-04-07T09:36:03;8.70;99.90
15872;DHT22;8035;51.962;7.162;2023-04-07T09:38:35;8.70;99.90
15872;DHT22;8035;51.962;7.162;2023-04-07T09:41:21;8.70;99.90
15872;DHT22;8035;51.962;7.162;2023-04-07T09:43:46;8.60;99.90
15872;DHT22;8035;51.962;7.162;2023-04-07T09:46:14;8.60;99.90
15872;DHT22;8035;51.962;7.162;2023-04-07T09:48:41;8.50;99.90
15872;DHT22;8035;51.962;7.162;2023-04-07T09:51:09;8.50;99.90
15872;DHT22;8035;51.962;7.162;2023-04-07T09:53:50;8.60;99.90
15872;DHT22;8035;51.962;7.162;2023-04-07T09:56:18;8.60;99.90
15872;DHT22;8035;51.962;7.162;2023-04-07T09:58:46;8.60;99.90
15872;DHT22;8035;51.962;7.162;2023-04-07T10:01:13;8.70;99.90
15872;DHT22;8035;51.962;7.162;2023-04-07T10:03:39;8.70;99.90
15872;DHT22;8035;51.962;7.162;2023-04-07T10:06:05;8.70;99.90
15872;DHT22;8035;51.962;7.162;2023-04-07T10:08:34;8.80;99.90
15872;DHT22;8035;51.962;7.162;2023-04-07T10:11:03;8.80;99.90
15872;DHT22;8035;51.962;7.162;2023-04-07T10:13:35;8.80;99.90
15872;DHT22;8035;51.962;7.162;2023-04-07T10:16:05;8.80;99.90
15872;DHT22;8035;51.962;7.162;2023-04-07T10:18:33;8.90;99.90
15872;DHT22;8035;51.962;7.162;2023-04-07T10:21:01;8.90;99.90
15872;DHT22;8035;51.962;7.162;2023-04-07T10:23:51;8.90;99.90
15872;DHT22;8035;51.962;7.162;2023-04-07T10:26:21;8.90;99.90
15872;DHT22;8035;51.962;7.162;2023-04-07T10:28:50;8.80;99.90
15872;DHT22;8035;51.962;7.162;2023-04-07T10:31:19;8.80;99.90
15872;DHT22;8035;51.962;7.162;2023-04-07T10:33:50;8.80;99.90
15872;DHT22;8035;51.962;7.162;2023-04-07T10:36:20;8.70;99.90
15872;DHT22;8035;51.962;7.162;2023-04-07T10:41:35;8.70;99.90
15872;DHT22;8035;51.962;7.162;2023-04-07T10:44:02;8.70;99.90
15872;DHT22;8035;51.962;7.162;2023-04-07T10:49:17;8.70;99.90
15872;DHT22;8035;51.962;7.162;2023-04-07T10:51:43;8.70;99.90
15872;DHT22;8035;51.962;7.162;2023-04-07T10:54:19;8.80;99.90
15872;DHT22;8035;51.962;7.162;2023-04-07T10:57:03;8.80;99.90
15872;DHT22;8035;51.962;7.162;2023-04-07T10:59:30;8.80;99.90
15872;DHT22;8035;51.962;7.162;2023-04-07T11:04:43;8.80;99.90
15872;DHT22;8035;51.962;7.162;2023-04-07T11:07:09;8.80;99.90
15872;DHT22;8035;51.962;7.162;2023-04-07T11:09:35;8.70;99.90
15872;DHT22;8035;51.962;7.162;2023-04-07T11:12:01;8.70;99.90
15872;DHT22;8035;51.962;7.162;2023-04-07T11:14:29;8.70;99.90
15872;DHT22;8035;51.962;7.162;2023-04-07T11:16:55;8.60;99.90
15872;DHT22;8035;51.962;7.162;2023-04-07T11:19:21;8.60;99.90
15872;DHT22;8035;51.962;7.162;2023-04-07T11:21:47;8.60;99.90
15872;DHT22;8035;51.962;7.162;2023-04-07T11:24:32;8.60;99.90
15872;DHT22;8035;51.962;7.162;2023-04-07T11:26:58;8.70;99.90
15872;DHT22;8035;51.962;7.162;2023-04-07T11:29:28;8.70;99.90
15872;DHT22;8035;51.962;7.162;2023-04-07T11:31:57;8.70;99.90
15872;DHT22;8035;51.962;7.162;2023-04-07T11:34:29;8.70;99.90
15872;DHT22;8035;51.962;7.162;2023-04-07T11:36:55;8.70;99.90
15872;DHT22;8035;51.962;7.162;2023-04-07T11:39:25;8.70;99.90
15872;DHT22;8035;51.962;7.162;2023-04-07T11:41:56;8.70;99.90
15872;DHT22;8035;51.962;7.162;2023-04-07T11:44:22;8.70;99.90
15872;DHT22;8035;51.962;7.162;2023-04-07T11:46:59;8.70;99.90
15872;DHT22;8035;51.962;7.162;2023-04-07T11:49:26;8.70;99.90
15872;DHT22;8035;51.962;7.162;2023-04-07T11:52:04;8.80;99.90
15872;DHT22;8035;51.962;7.162;2023-04-07T11:54:44;8.80;99.90
15872;DHT22;8035;51.962;7.162;2023-04-07T11:57:24;8.90;99.90
15872;DHT22;8035;51.962;7.162;2023-04-07T12:00:07;9.00;99.90
15872;DHT22;8035;51.962;7.162;2023-04-07T12:02:34;9.00;99.90
15872;DHT22;8035;51.962;7.162;2023-04-07T12:05:00;9.00;99.90
15872;DHT22;8035;51.962;7.162;2023-04-07T12:07:26;9.00;99.90
15872;DHT22;8035;51.962;7.162;2023-04-07T12:09:53;9.00;99.90
15872;DHT22;8035;51.962;7.162;2023-04-07T12:12:28;9.00;99.90
15872;DHT22;8035;51.962;7.162;2023-04-07T12:14:55;9.00;99.90
15872;DHT22;8035;51.962;7.162;2023-04-07T12:17:25;9.10;99.90
15872;DHT22;8035;51.962;7.162;2023-04-07T12:19:52;9.10;99.90
15872;DHT22;8035;51.962;7.162;2023-04-07T12:22:18;9.00;99.90
15872;DHT22;8035;51.962;7.162;2023-04-07T12:24:44;9.00;99.90
15872;DHT22;8035;51.962;7.162;2023-04-07T12:27:10;9.00;99.90
15872;DHT22;8035;51.962;7.162;2023-04-07T12:29:36;9.00;99.90
15872;DHT22;8035;51.962;7.162;2023-04-07T12:32:03;9.00;99.90
15872;DHT22;8035;51.962;7.162;2023-04-07T12:34:29;8.90;99.90
15872;DHT22;8035;51.962;7.162;2023-04-07T12:36:54;8.90;99.90
15872;DHT22;8035;51.962;7.162;2023-04-07T12:39:20;8.90;99.90
15872;DHT22;8035;51.962;7.162;2023-04-07T12:41:46;8.90;99.90
15872;DHT22;8035;51.962;7.162;2023-04-07T12:44:14;9.00;99.90
15872;DHT22;8035;51.962;7.162;2023-04-07T12:46:40;9.00;99.90
15872;DHT22;8035;51.962;7.162;2023-04-07T12:49:06;9.10;99.90
15872;DHT22;8035;51.962;7.162;2023-04-07T12:51:31;9.20;99.90
15872;DHT22;8035;51.962;7.162;2023-04-07T12:53:58;9.20;99.90
15872;DHT22;8035;51.962;7.162;2023-04-07T12:56:25;9.30;99.90
15872;DHT22;8035;51.962;7.162;2023-04-07T12:58:52;9.30;99.90
15872;DHT22;8035;51.962;7.162;2023-04-07T13:01:17;9.40;99.90
15872;DHT22;8035;51.962;7.162;2023-04-07T13:03:43;9.40;99.90
15872;DHT22;8035;51.962;7.162;2023-04-07T13:06:09;9.40;99.90
15872;DHT22;8035;51.962;7.162;2023-04-07T13:08:35;9.40;99.90
15872;DHT22;8035;51.962;7.162;2023-04-07T13:11:01;9.40;99.90
15872;DHT22;8035;51.962;7.162;2023-04-07T13:13:27;9.40;99.90
15872;DHT22;8035;51.962;7.162;2023-04-07T13:15:52;9.40;99.90
15872;DHT22;8035;51.962;7.162;2023-04-07T13:18:18;9.40;99.90
15872;DHT22;8035;51.962;7.162;2023-04-07T13:20:44;9.40;99.90
15872;DHT22;8035;51.962;7.162;2023-04-07T13:23:10;9.40;99.90
15872;DHT22;8035;51.962;7.162;2023-04-07T13:25:36;9.40;99.90
15872;DHT22;8035;51.962;7.162;2023-04-07T13:28:02;9.30;99.90
15872;DHT22;8035;51.962;7.162;2023-04-07T13:30:27;9.30;99.90
15872;DHT22;8035;51.962;7.162;2023-04-07T13:32:53;9.30;99.90
15872;DHT22;8035;51.962;7.162;2023-04-07T13:35:19;9.30;99.90
15872;DHT22;8035;51.962;7.162;2023-04-07T13:37:45;9.40;99.90
15872;DHT22;8035;51.962;7.162;2023-04-07T13:40:11;9.40;99.90
15872;DHT22;8035;51.962;7.162;2023-04-07T13:42:55;9.40;99.90
15872;DHT22;8035;51.962;7.162;2023-04-07T13:45:22;9.40;99.90
15872;DHT22;8035;51.962;7.162;2023-04-07T13:47:47;9.40;99.90
15872;DHT22;8035;51.962;7.162;2023-04-07T13:50:13;9.40;99.90
15872;DHT22;8035;51.962;7.162;2023-04-07T13:52:39;9.40;99.90
15872;DHT22;8035;51.962;7.162;2023-04-07T13:55:05;9.40;99.90
15872;DHT22;8035;51.962;7.162;2023-04-07T13:57:31;9.40;99.90
15872;DHT22;8035;51.962;7.162;2023-04-07T13:59:57;9.40;99.90
15872;DHT22;8035;51.962;7.162;2023-04-07T14:02:23;9.50;99.90
15872;DHT22;8035;51.962;7.162;2023-04-07T14:04:49;9.50;99.90
15872;DHT22;8035;51.962;7.162;2023-04-07T14:07:15;9.50;99.90
15872;DHT22;8035;51.962;7.162;2023-04-07T14:09:40;9.50;99.90
15872;DHT22;8035;51.962;7.162;2023-04-07T14:12:07;9.50;99.90
15872;DHT22;8035;51.962;7.162;2023-04-07T14:14:33;9.60;99.90
15872;DHT22;8035;51.962;7.162;2023-04-07T14:17:01;9.60;99.90
15872;DHT22;8035;51.962;7.162;2023-04-07T14:19:28;9.60;99.90
15872;DHT22;8035;51.962;7.162;2023-04-07T14:21:54;9.60;99.90
15872;DHT22;8035;51.962;7.162;2023-04-07T14:24:20;9.70;99.90
15872;DHT22;8035;51.962;7.162;2023-04-07T14:26:46;9.80;99.90
15872;DHT22;8035;51.962;7.162;2023-04-07T14:29:12;9.80;99.90
15872;DHT22;8035;51.962;7.162;2023-04-07T14:31:38;9.90;99.90
15872;DHT22;8035;51.962;7.162;2023-04-07T14:34:04;9.90;99.90
15872;DHT22;8035;51.962;7.162;2023-04-07T14:36:31;9.90;99.90
15872;DHT22;8035;51.962;7.162;2023-04-07T14:38:57;9.90;99.90
15872;DHT22;8035;51.962;7.162;2023-04-07T14:41:23;9.90;99.90
15872;DHT22;8035;51.962;7.162;2023-04-07T14:43:49;9.90;99.90
15872;DHT22;8035;51.962;7.162;2023-04-07T14:46:21;9.90;99.90
15872;DHT22;8035;51.962;7.162;2023-04-07T14:48:47;9.80;99.90
15872;DHT22;8035;51.962;7.162;2023-04-07T14:51:13;9.80;99.90
15872;DHT22;8035;51.962;7.162;2023-04-07T14:53:42;9.80;99.90
15872;DHT22;8035;51.962;7.162;2023-04-07T14:56:08;9.80;99.90
15872;DHT22;8035;51.962;7.162;2023-04-07T14:58:34;9.80;99.90
15872;DHT22;8035;51.962;7.162;2023-04-07T15:01:02;9.90;99.90
15872;DHT22;8035;51.962;7.162;2023-04-07T15:03:27;9.90;99.90
15872;DHT22;8035;51.962;7.162;2023-04-07T15:05:53;9.90;99.90
15872;DHT22;8035;51.962;7.162;2023-04-07T15:08:19;9.90;99.90
15872;DHT22;8035;51.962;7.162;2023-04-07T15:10:44;9.90;99.90
15872;DHT22;8035;51.962;7.162;2023-04-07T15:13:10;9.90;99.90
15872;DHT22;8035;51.962;7.162;2023-04-07T15:15:36;9.90;99.90
15872;DHT22;8035;51.962;7.162;2023-04-07T15:18:20;9.90;99.90
15872;DHT22;8035;51.962;7.162;2023-04-07T15:20:46;9.90;99.90
15872;DHT22;8035;51.962;7.162;2023-04-07T15:23:12;9.90;99.90
15872;DHT22;8035;51.962;7.162;2023-04-07T15:25:39;9.90;99.90
15872;DHT22;8035;51.962;7.162;2023-04-07T15:28:05;9.90;99.90
15872;DHT22;8035;51.962;7.162;2023-04-07T15:30:31;9.90;99.90
15872;DHT22;8035;51.962;7.162;2023-04-07T15:33:02;9.90;99.90
15872;DHT22;8035;51.962;7.162;2023-04-07T15:35:29;9.90;99.90
15872;DHT22;8035;51.962;7.162;2023-04-07T15:37:54;9.90;99.90
15872;DHT22;8035;51.962;7.162;2023-04-07T15:40:20;9.90;99.90
15872;DHT22;8035;51.962;7.162;2023-04-07T15:42:46;10.00;99.90
15872;DHT22;8035;51.962;7.162;2023-04-07T15:45:12;10.00;99.90
15872;DHT22;8035;51.962;7.162;2023-04-07T15:47:38;10.00;99.90
15872;DHT22;8035;51.962;7.162;2023-04-07T15:50:04;10.00;99.90
15872;DHT22;8035;51.962;7.162;2023-04-07T15:52:30;10.00;99.90
15872;DHT22;8035;51.962;7.162;2023-04-07T15:54:55;10.00;99.90
15872;DHT22;8035;51.962;7.162;2023-04-07T15:57:21;10.00;99.90
15872;DHT22;8035;51.962;7.162;2023-04-07T15:59:47;10.00;99.90
15872;DHT22;8035;51.962;7.162;2023-04-07T16:02:13;9.90;99.90
15872;DHT22;8035;51.962;7.162;2023-04-07T16:04:39;9.90;99.90
15872;DHT22;8035;51.962;7.162;2023-04-07T16:07:05;10.00;99.90
15872;DHT22;8035;51.962;7.162;2023-04-07T16:09:30;9.90;99.90
15872;DHT22;8035;51.962;7.162;2023-04-07T16:11:57;10.00;99.90
15872;DHT22;8035;51.962;7.162;2023-04-07T16:14:23;10.00;99.90
15872;DHT22;8035;51.962;7.162;2023-04-07T16:16:53;9.90;99.90
15872;DHT22;8035;51.962;7.162;2023-04-07T16:19:23;9.90;99.90
15872;DHT22;8035;51.962;7.162;2023-04-07T16:21:48;10.00;99.90
15872;DHT22;8035;51.962;7.162;2023-04-07T16:24:14;10.00;99.90
15872;DHT22;8035;51.962;7.162;2023-04-07T16:26:40;10.00;99.90